createdAt,value
2023-05-14T00:00:51.070Z,16.7021
2023-05-14T00:01:52.500Z,16.6866
2023-05-14T00:02:53.943Z,16.6885
2023-05-14T00:03:55.321Z,16.6832
2023-05-14T00:04:56.663Z,16.6762
2023-05-14T00:05:58.109Z,16.6558
2023-05-14T00:06:59.626Z,16.6754
2023-05-14T00:08:01.001Z,16.6762
2023-05-14T00:09:02.356Z,16.6793
2023-05-14T00:10:03.832Z,16.6998
2023-05-14T00:11:05.205Z,16.6910
2023-05-14T00:12:06.742Z,16.6797
2023-05-14T00:13:08.143Z,16.6875
2023-05-14T00:14:09.513Z,16.6661
2023-05-14T00:15:10.872Z,16.6591
2023-05-14T00:16:12.398Z,16.6443
2023-05-14T00:17:13.769Z,16.6369
2023-05-14T00:18:15.251Z,16.6538
2023-05-14T00:19:16.671Z,16.6817
2023-05-14T00:20:18.117Z,16.6793
2023-05-14T00:21:19.393Z,16.6805
2023-05-14T00:22:20.897Z,16.6906
2023-05-14T00:23:22.351Z,16.6727
2023-05-14T00:24:23.719Z,16.6548
2023-05-14T00:25:25.085Z,16.6667
2023-05-14T00:26:26.631Z,16.6799
2023-05-14T00:27:28.064Z,16.6864
2023-05-14T00:28:29.485Z,16.6895
2023-05-14T00:29:30.891Z,16.6887
2023-05-14T00:30:32.254Z,16.6585
2023-05-14T00:31:33.813Z,16.6507
2023-05-14T00:32:35.144Z,16.6790
2023-05-14T00:33:36.560Z,16.6359
2023-05-14T00:34:37.954Z,16.6326
2023-05-14T00:35:39.401Z,16.6367
2023-05-14T00:36:40.816Z,16.6511
2023-05-14T00:37:42.282Z,16.6565
2023-05-14T00:38:43.615Z,16.6585
2023-05-14T00:39:45.080Z,16.6749
2023-05-14T00:40:46.472Z,16.6560
2023-05-14T00:41:47.840Z,16.6782
2023-05-14T00:42:49.271Z,16.6554
2023-05-14T00:43:50.834Z,16.6914
2023-05-14T00:44:52.183Z,16.7002
2023-05-14T00:45:53.678Z,16.6986
2023-05-14T00:46:55.097Z,16.7121
2023-05-14T00:47:56.519Z,16.7004
2023-05-14T00:48:57.928Z,16.6702
2023-05-14T00:49:59.349Z,16.6873
2023-05-14T00:51:00.739Z,16.6770
2023-05-14T00:52:02.200Z,16.6573
2023-05-14T00:53:03.643Z,16.6560
2023-05-14T00:54:05.805Z,16.6589
2023-05-14T00:55:06.584Z,16.6815
2023-05-14T00:56:07.841Z,16.6873
2023-05-14T00:57:09.307Z,16.6832
2023-05-14T00:58:10.742Z,16.6675
2023-05-14T00:59:12.193Z,16.6719
2023-05-14T01:00:13.500Z,16.6680
2023-05-14T01:01:14.980Z,16.6521
2023-05-14T01:02:16.479Z,16.6361
2023-05-14T01:03:18.007Z,16.6577
2023-05-14T01:04:19.273Z,16.6084
2023-05-14T01:05:20.755Z,16.6562
2023-05-14T01:06:22.090Z,16.6790
2023-05-14T01:07:23.520Z,16.6636
2023-05-14T01:08:25.046Z,16.6628
2023-05-14T01:09:26.397Z,16.6634
2023-05-14T01:10:27.810Z,16.6464
2023-05-14T01:11:29.282Z,16.6415
2023-05-14T01:12:30.701Z,16.6667
2023-05-14T01:13:32.049Z,16.6700
2023-05-14T01:14:33.476Z,16.6844
2023-05-14T01:15:34.903Z,16.6947
2023-05-14T01:16:36.382Z,16.7051
2023-05-14T01:17:37.811Z,16.6945
2023-05-14T01:18:39.288Z,16.7035
2023-05-14T01:19:40.664Z,16.7107
2023-05-14T01:20:42.071Z,16.7331
2023-05-14T01:21:43.458Z,16.7183
2023-05-14T01:22:44.943Z,16.7171
2023-05-14T01:23:46.324Z,16.7016
2023-05-14T01:24:47.733Z,16.7115
2023-05-14T01:25:49.222Z,16.6727
2023-05-14T01:26:50.527Z,16.6638
2023-05-14T01:27:52.109Z,16.6544
2023-05-14T01:28:53.416Z,16.6945
2023-05-14T01:29:54.833Z,16.6877
2023-05-14T01:30:56.407Z,16.6727
2023-05-14T01:31:58.906Z,16.6386
2023-05-14T01:32:59.197Z,16.6626
2023-05-14T01:34:00.612Z,16.6772
2023-05-14T01:35:02.084Z,16.6700
2023-05-14T01:36:04.370Z,16.6745
2023-05-14T01:37:04.952Z,16.6922
2023-05-14T01:38:06.408Z,16.6881
2023-05-14T01:39:07.788Z,16.6827
2023-05-14T01:40:09.143Z,16.6628
2023-05-14T01:41:10.634Z,16.6727
2023-05-14T01:42:12.064Z,16.6634
2023-05-14T01:43:13.489Z,16.6515
2023-05-14T01:44:14.898Z,16.6768
2023-05-14T01:45:16.286Z,16.6844
2023-05-14T01:46:17.808Z,16.6788
2023-05-14T01:47:19.886Z,16.7021
2023-05-14T01:48:20.567Z,16.6938
2023-05-14T01:49:21.958Z,16.6883
2023-05-14T01:50:23.689Z,16.6540
2023-05-14T01:51:24.853Z,16.6819
2023-05-14T01:52:26.283Z,16.6969
2023-05-14T01:53:27.631Z,16.7068
2023-05-14T01:54:29.144Z,16.7043
2023-05-14T01:55:30.472Z,16.7058
2023-05-14T01:56:31.959Z,16.7000
2023-05-14T01:57:33.446Z,16.6649
2023-05-14T01:58:34.757Z,16.6684
2023-05-14T01:59:36.118Z,16.6534
2023-05-14T02:00:37.614Z,16.6450
2023-05-14T02:01:39.131Z,16.6536
2023-05-14T02:02:40.476Z,16.6651
2023-05-14T02:03:42.006Z,16.6608
2023-05-14T02:04:43.321Z,16.6589
2023-05-14T02:05:44.686Z,16.6632
2023-05-14T02:06:46.852Z,16.6556
2023-05-14T02:07:47.669Z,16.6684
2023-05-14T02:08:48.977Z,16.6634
2023-05-14T02:09:50.473Z,16.6776
2023-05-14T02:10:51.823Z,16.6844
2023-05-14T02:11:53.353Z,16.6834
2023-05-14T02:12:54.685Z,16.6860
2023-05-14T02:13:56.162Z,16.6751
2023-05-14T02:14:57.613Z,16.6620
2023-05-14T02:15:59.121Z,16.6530
2023-05-14T02:17:00.429Z,16.6478
2023-05-14T02:18:01.993Z,16.6509
2023-05-14T02:19:03.378Z,16.6421
2023-05-14T02:20:04.677Z,16.6320
2023-05-14T02:21:06.080Z,16.6347
2023-05-14T02:22:07.569Z,16.6345
2023-05-14T02:23:08.932Z,16.6252
2023-05-14T02:24:10.314Z,16.6217
2023-05-14T02:25:11.778Z,16.6242
2023-05-14T02:26:13.253Z,16.6228
2023-05-14T02:27:14.776Z,16.6238
2023-05-14T02:28:16.047Z,16.6293
2023-05-14T02:29:17.483Z,16.6355
2023-05-14T02:30:18.859Z,16.6193
2023-05-14T02:31:20.395Z,16.5981
2023-05-14T02:32:21.827Z,16.6291
2023-05-14T02:33:23.322Z,16.6472
2023-05-14T02:34:24.599Z,16.6546
2023-05-14T02:35:26.068Z,16.6363
2023-05-14T02:36:27.420Z,16.6256
2023-05-14T02:37:28.992Z,16.5948
2023-05-14T02:38:30.292Z,16.6061
2023-05-14T02:39:31.643Z,16.5996
2023-05-14T02:40:33.107Z,16.5928
2023-05-14T02:41:34.593Z,16.5996
2023-05-14T02:42:35.990Z,16.6139
2023-05-14T02:43:37.440Z,16.6164
2023-05-14T02:44:38.722Z,16.6059
2023-05-14T02:45:40.306Z,16.6121
2023-05-14T02:46:41.719Z,16.5883
2023-05-14T02:47:43.945Z,16.6100
2023-05-14T02:48:45.333Z,16.5874
2023-05-14T02:49:45.831Z,16.5874
2023-05-14T02:50:47.420Z,16.6006
2023-05-14T02:51:48.778Z,16.5800
2023-05-14T02:52:50.293Z,16.5860
2023-05-14T02:53:51.696Z,16.6002
2023-05-14T02:54:53.814Z,16.6072
2023-05-14T02:55:54.546Z,16.6045
2023-05-14T02:56:55.908Z,16.6057
2023-05-14T02:57:57.356Z,16.5858
2023-05-14T02:58:59.417Z,16.5759
2023-05-14T03:00:00.052Z,16.5835
2023-05-14T03:01:01.647Z,16.5924
2023-05-14T03:02:03.093Z,16.5901
2023-05-14T03:03:04.467Z,16.5864
2023-05-14T03:04:05.899Z,16.5932
2023-05-14T03:05:07.286Z,16.5653
2023-05-14T03:06:08.728Z,16.5585
2023-05-14T03:07:10.116Z,16.5486
2023-05-14T03:08:11.449Z,16.5591
2023-05-14T03:09:12.956Z,16.5533
2023-05-14T03:10:14.407Z,16.5673
2023-05-14T03:11:15.792Z,16.5675
2023-05-14T03:12:17.246Z,16.5591
2023-05-14T03:13:18.552Z,16.5677
2023-05-14T03:14:20.063Z,16.5696
2023-05-14T03:15:21.414Z,16.5685
2023-05-14T03:16:22.930Z,16.5268
2023-05-14T03:17:24.274Z,16.5151
2023-05-14T03:18:25.855Z,16.5213
2023-05-14T03:19:27.160Z,16.5461
2023-05-14T03:20:28.593Z,16.5482
2023-05-14T03:21:30.020Z,16.5406
2023-05-14T03:22:31.425Z,16.5441
2023-05-14T03:23:33.366Z,16.5490
2023-05-14T03:24:34.289Z,16.5443
2023-05-14T03:25:35.702Z,16.5336
2023-05-14T03:26:37.076Z,16.5186
2023-05-14T03:27:38.551Z,16.5258
2023-05-14T03:28:39.977Z,16.5170
2023-05-14T03:29:41.416Z,16.5289
2023-05-14T03:30:42.920Z,16.5303
2023-05-14T03:31:44.240Z,16.5258
2023-05-14T03:32:45.642Z,16.5291
2023-05-14T03:33:47.048Z,16.5236
2023-05-14T03:34:48.486Z,16.5359
2023-05-14T03:35:49.920Z,16.5449
2023-05-14T03:36:51.283Z,16.5521
2023-05-14T03:37:52.753Z,16.5242
2023-05-14T03:38:54.180Z,16.5219
2023-05-14T03:39:55.668Z,16.5388
2023-05-14T03:40:57.014Z,16.5398
2023-05-14T03:41:58.441Z,16.5392
2023-05-14T03:42:59.827Z,16.5279
2023-05-14T03:44:01.320Z,16.5431
2023-05-14T03:45:02.760Z,16.5338
2023-05-14T03:46:04.139Z,16.5190
2023-05-14T03:47:05.605Z,16.5293
2023-05-14T03:48:07.102Z,16.5264
2023-05-14T03:49:08.482Z,16.5194
2023-05-14T03:50:09.958Z,16.5180
2023-05-14T03:51:11.259Z,16.5116
2023-05-14T03:52:12.695Z,16.5194
2023-05-14T03:53:14.093Z,16.5266
2023-05-14T03:54:15.549Z,16.5375
2023-05-14T03:55:17.024Z,16.5564
2023-05-14T03:56:18.285Z,16.5677
2023-05-14T03:57:19.756Z,16.5548
2023-05-14T03:58:21.237Z,16.5548
2023-05-14T03:59:22.651Z,16.5496
2023-05-14T04:00:24.333Z,16.5577
2023-05-14T04:01:25.505Z,16.5655
2023-05-14T04:02:27.046Z,16.5712
2023-05-14T04:03:28.407Z,16.5776
2023-05-14T04:04:29.828Z,16.5583
2023-05-14T04:05:31.904Z,16.5646
2023-05-14T04:06:32.607Z,16.5870
2023-05-14T04:07:34.014Z,16.5917
2023-05-14T04:08:35.509Z,16.5854
2023-05-14T04:09:36.938Z,16.5583
2023-05-14T04:10:38.448Z,16.5474
2023-05-14T04:11:39.792Z,16.5443
2023-05-14T04:12:41.184Z,16.5533
2023-05-14T04:13:42.569Z,16.5566
2023-05-14T04:14:44.046Z,16.5529
2023-05-14T04:15:46.354Z,16.5540
2023-05-14T04:16:46.980Z,16.5552
2023-05-14T04:17:48.350Z,16.5638
2023-05-14T04:18:49.780Z,16.5661
2023-05-14T04:19:51.141Z,16.5757
2023-05-14T04:20:52.609Z,16.6006
2023-05-14T04:21:54.033Z,16.5926
2023-05-14T04:22:55.352Z,16.6082
2023-05-14T04:23:56.871Z,16.6322
2023-05-14T04:24:58.393Z,16.6684
2023-05-14T04:25:59.681Z,16.7031
2023-05-14T04:27:01.150Z,16.6827
2023-05-14T04:28:02.514Z,16.6780
2023-05-14T04:29:03.884Z,16.6597
2023-05-14T04:30:05.380Z,16.6328
2023-05-14T04:31:06.831Z,16.6702
2023-05-14T04:32:08.307Z,16.6959
2023-05-14T04:33:09.748Z,16.6770
2023-05-14T04:34:11.076Z,16.7164
2023-05-14T04:35:12.561Z,16.7076
2023-05-14T04:36:13.957Z,16.6780
2023-05-14T04:37:15.289Z,16.7002
2023-05-14T04:38:16.762Z,16.7359
2023-05-14T04:39:18.217Z,16.7359
2023-05-14T04:40:19.704Z,16.7466
2023-05-14T04:41:21.145Z,16.7279
2023-05-14T04:42:22.443Z,16.7653
2023-05-14T04:43:23.934Z,16.7657
2023-05-14T04:44:25.315Z,16.7906
2023-05-14T04:45:26.819Z,16.7984
2023-05-14T04:46:28.369Z,16.8009
2023-05-14T04:47:29.762Z,16.7815
2023-05-14T04:48:31.052Z,16.7935
2023-05-14T04:49:32.534Z,16.8033
2023-05-14T04:50:33.900Z,16.7776
2023-05-14T04:51:35.386Z,16.7742
2023-05-14T04:52:36.749Z,16.7834
2023-05-14T04:53:38.217Z,16.7883
2023-05-14T04:54:39.716Z,16.7947
2023-05-14T04:55:40.958Z,16.8300
2023-05-14T04:56:42.582Z,16.8333
2023-05-14T04:57:43.901Z,16.8442
2023-05-14T04:58:45.284Z,16.8446
2023-05-14T04:59:46.770Z,16.8015
2023-05-14T05:00:48.253Z,16.8561
2023-05-14T05:01:49.698Z,16.8553
2023-05-14T05:02:51.029Z,16.8261
2023-05-14T05:03:52.368Z,16.8456
2023-05-14T05:04:53.880Z,16.8945
2023-05-14T05:05:55.322Z,16.8313
2023-05-14T05:06:56.745Z,16.7941
2023-05-14T05:07:58.188Z,16.8547
2023-05-14T05:09:01.845Z,16.8896
2023-05-14T05:10:00.991Z,16.8744
2023-05-14T05:11:02.464Z,16.8855
2023-05-14T05:12:03.866Z,16.9062
2023-05-14T05:13:05.376Z,16.9311
2023-05-14T05:14:06.826Z,16.9223
2023-05-14T05:15:08.137Z,16.8779
2023-05-14T05:16:09.723Z,16.9042
2023-05-14T05:17:11.012Z,16.9294
2023-05-14T05:18:12.467Z,16.9188
2023-05-14T05:19:13.981Z,16.9159
2023-05-14T05:20:15.377Z,16.9282
2023-05-14T05:21:16.650Z,16.9477
2023-05-14T05:22:18.947Z,16.7994
2023-05-14T05:23:19.491Z,16.7972
2023-05-14T05:24:20.962Z,16.8321
2023-05-14T05:25:22.389Z,16.8801
2023-05-14T05:26:23.802Z,16.8941
2023-05-14T05:27:25.237Z,16.9198
2023-05-14T05:28:26.664Z,16.9446
2023-05-14T05:29:28.031Z,16.9662
2023-05-14T05:30:29.475Z,16.9126
2023-05-14T05:31:30.970Z,16.8953
2023-05-14T05:32:32.487Z,16.9453
2023-05-14T05:33:33.839Z,16.9516
2023-05-14T05:34:35.255Z,16.9761
2023-05-14T05:35:36.710Z,16.9872
2023-05-14T05:36:38.039Z,16.9995
2023-05-14T05:37:39.565Z,17.0048
2023-05-14T05:38:40.973Z,17.0096
2023-05-14T05:39:42.390Z,17.0194
2023-05-14T05:40:43.774Z,17.0500
2023-05-14T05:41:45.353Z,17.0749
2023-05-14T05:42:46.613Z,17.0763
2023-05-14T05:43:48.190Z,16.8988
2023-05-14T05:44:49.591Z,16.7551
2023-05-14T05:45:51.002Z,16.7392
2023-05-14T05:46:52.386Z,16.8606
2023-05-14T05:47:53.874Z,16.9409
2023-05-14T05:48:55.130Z,16.9726
2023-05-14T05:49:56.612Z,16.9857
2023-05-14T05:50:57.986Z,16.9964
2023-05-14T05:51:59.459Z,16.9874
2023-05-14T05:53:00.934Z,16.9855
2023-05-14T05:54:02.470Z,17.0176
2023-05-14T05:55:03.781Z,17.0235
2023-05-14T05:56:05.123Z,17.0176
2023-05-14T05:57:06.578Z,17.0299
2023-05-14T05:58:08.030Z,17.0467
2023-05-14T05:59:09.468Z,17.0736
2023-05-14T06:00:10.869Z,17.0923
2023-05-14T06:01:12.255Z,17.0330
2023-05-14T06:02:13.773Z,17.0899
2023-05-14T06:03:15.163Z,17.1266
2023-05-14T06:04:16.609Z,17.1741
2023-05-14T06:05:18.007Z,17.1944
2023-05-14T06:06:19.535Z,17.2191
2023-05-14T06:07:20.794Z,17.2780
2023-05-14T06:08:22.273Z,17.4914
2023-05-14T06:09:23.664Z,17.8509
2023-05-14T06:10:25.374Z,18.3223
2023-05-14T06:11:26.497Z,18.7697
2023-05-14T06:12:27.953Z,18.9022
2023-05-14T06:13:29.350Z,18.8761
2023-05-14T06:14:30.829Z,18.9965
2023-05-14T06:15:32.165Z,19.2044
2023-05-14T06:16:33.697Z,19.5605
2023-05-14T06:17:35.063Z,19.9418
2023-05-14T06:18:36.582Z,20.3306
2023-05-14T06:19:37.969Z,20.4276
2023-05-14T06:20:39.389Z,20.2665
2023-05-14T06:21:40.680Z,20.2331
2023-05-14T06:22:42.122Z,20.4013
2023-05-14T06:23:43.625Z,20.6887
2023-05-14T06:24:45.017Z,21.0590
2023-05-14T06:25:46.570Z,21.3829
2023-05-14T06:26:47.849Z,21.7015
2023-05-14T06:27:49.258Z,22.1789
2023-05-14T06:28:50.624Z,22.4677
2023-05-14T06:29:52.069Z,22.4669
2023-05-14T06:30:53.514Z,22.1649
2023-05-14T06:31:54.999Z,22.1310
2023-05-14T06:32:56.335Z,22.3989
2023-05-14T06:33:57.645Z,22.6957
2023-05-14T06:34:59.183Z,23.1698
2023-05-14T06:36:00.570Z,22.9954
2023-05-14T06:37:01.973Z,22.6312
2023-05-14T06:38:03.372Z,22.5735
2023-05-14T06:39:04.805Z,22.7432
2023-05-14T06:40:06.269Z,22.9952
2023-05-14T06:41:07.670Z,23.2959
2023-05-14T06:42:09.027Z,23.6180
2023-05-14T06:43:10.585Z,23.2437
2023-05-14T06:44:11.917Z,23.0164
2023-05-14T06:45:13.398Z,23.0537
2023-05-14T06:46:14.760Z,23.2374
2023-05-14T06:47:16.213Z,23.4857
2023-05-14T06:48:17.549Z,23.8339
2023-05-14T06:49:19.024Z,23.6118
2023-05-14T06:50:20.518Z,23.3339
2023-05-14T06:51:21.924Z,23.3571
2023-05-14T06:52:23.353Z,23.5215
2023-05-14T06:53:24.797Z,23.7920
2023-05-14T06:54:26.191Z,23.9643
2023-05-14T06:55:27.602Z,23.7823
2023-05-14T06:56:28.947Z,23.5225
2023-05-14T06:57:30.505Z,23.6289
2023-05-14T06:58:31.769Z,23.7564
2023-05-14T06:59:33.245Z,24.0093
2023-05-14T07:00:34.710Z,23.9908
2023-05-14T07:01:36.234Z,23.7006
2023-05-14T07:02:37.401Z,23.6735
2023-05-14T07:03:39.017Z,23.9056
2023-05-14T07:04:40.392Z,24.0455
2023-05-14T07:05:41.842Z,24.0095
2023-05-14T07:06:43.187Z,23.7702
2023-05-14T07:07:44.629Z,23.7470
2023-05-14T07:08:46.030Z,23.8813
2023-05-14T07:09:47.464Z,24.0980
2023-05-14T07:10:48.929Z,24.0514
2023-05-14T07:11:50.329Z,23.8273
2023-05-14T07:12:51.725Z,23.8854
2023-05-14T07:13:53.244Z,24.0526
2023-05-14T07:14:54.551Z,24.2492
2023-05-14T07:15:56.089Z,24.0015
2023-05-14T07:16:57.523Z,23.5371
2023-05-14T07:17:58.907Z,23.4144
2023-05-14T07:19:00.331Z,23.3296
2023-05-14T07:20:01.833Z,23.3234
2023-05-14T07:21:03.168Z,22.9740
2023-05-14T07:22:04.492Z,22.5614
2023-05-14T07:23:05.902Z,22.5002
2023-05-14T07:24:07.444Z,22.4747
2023-05-14T07:25:08.782Z,22.4387
2023-05-14T07:26:10.287Z,22.1002
2023-05-14T07:27:11.770Z,21.8258
2023-05-14T07:28:13.126Z,21.8005
2023-05-14T07:29:14.406Z,21.8233
2023-05-14T07:30:16.077Z,21.8669
2023-05-14T07:31:17.360Z,21.9129
2023-05-14T07:32:18.781Z,21.8800
2023-05-14T07:33:20.210Z,21.4667
2023-05-14T07:34:21.585Z,21.2363
2023-05-14T07:35:23.022Z,21.1849
2023-05-14T07:36:24.496Z,21.2383
2023-05-14T07:37:25.941Z,21.2862
2023-05-14T07:38:27.350Z,21.4094
2023-05-14T07:39:28.765Z,21.4462
2023-05-14T07:40:30.140Z,21.2003
2023-05-14T07:41:31.661Z,20.8630
2023-05-14T07:42:36.588Z,20.8314
2023-05-14T07:43:34.390Z,20.8382
2023-05-14T07:44:35.834Z,20.8725
2023-05-14T07:45:37.288Z,20.9386
2023-05-14T07:46:38.694Z,20.9674
2023-05-14T07:47:40.152Z,20.9982
2023-05-14T07:48:41.528Z,20.7055
2023-05-14T07:49:42.919Z,20.4781
2023-05-14T07:50:44.358Z,20.4921
2023-05-14T07:51:45.836Z,20.5290
2023-05-14T07:52:47.231Z,20.5691
2023-05-14T07:53:48.624Z,20.6161
2023-05-14T07:54:50.757Z,20.6833
2023-05-14T07:55:51.436Z,20.7517
2023-05-14T07:56:52.889Z,20.4748
2023-05-14T07:57:54.356Z,20.1985
2023-05-14T07:58:55.693Z,20.2123
2023-05-14T07:59:57.073Z,20.2624
2023-05-14T08:00:58.555Z,20.3672
2023-05-14T08:02:00.067Z,20.4448
2023-05-14T08:03:01.459Z,20.5206
2023-05-14T08:04:02.927Z,20.5972
2023-05-14T08:05:04.257Z,20.4323
2023-05-14T08:06:05.728Z,20.1907
2023-05-14T08:07:07.122Z,20.1655
2023-05-14T08:08:08.571Z,20.2096
2023-05-14T08:09:09.894Z,20.2657
2023-05-14T08:10:11.352Z,20.3450
2023-05-14T08:11:12.753Z,20.4800
2023-05-14T08:12:14.222Z,20.5465
2023-05-14T08:13:15.652Z,20.3144
2023-05-14T08:14:16.952Z,20.0562
2023-05-14T08:15:18.434Z,20.0601
2023-05-14T08:16:19.949Z,20.1386
2023-05-14T08:17:21.348Z,20.2462
2023-05-14T08:18:22.765Z,20.3666
2023-05-14T08:19:24.168Z,20.4888
2023-05-14T08:20:25.886Z,20.5714
2023-05-14T08:21:26.969Z,20.3485
2023-05-14T08:22:28.427Z,20.2587
2023-05-14T08:23:29.885Z,20.2867
2023-05-14T08:24:31.328Z,20.3762
2023-05-14T08:25:32.713Z,20.4771
2023-05-14T08:26:34.216Z,20.5646
2023-05-14T08:27:35.597Z,20.7102
2023-05-14T08:28:37.079Z,20.6192
2023-05-14T08:29:38.454Z,20.3705
2023-05-14T08:30:39.806Z,20.3524
2023-05-14T08:31:41.304Z,20.3916
2023-05-14T08:32:42.733Z,20.4949
2023-05-14T08:33:44.173Z,20.5668
2023-05-14T08:34:45.623Z,20.7092
2023-05-14T08:35:46.961Z,20.7850
2023-05-14T08:36:48.401Z,20.4103
2023-05-14T08:37:49.819Z,20.2057
2023-05-14T08:38:51.253Z,20.2916
2023-05-14T08:39:52.680Z,20.4364
2023-05-14T08:40:54.116Z,20.5036
2023-05-14T08:41:55.462Z,20.5691
2023-05-14T08:42:56.960Z,20.7123
2023-05-14T08:43:58.381Z,20.6459
2023-05-14T08:44:59.755Z,20.3259
2023-05-14T08:46:01.217Z,20.2000
2023-05-14T08:47:02.647Z,20.3805
2023-05-14T08:48:04.091Z,20.4588
2023-05-14T08:49:05.593Z,20.5315
2023-05-14T08:50:06.864Z,20.6938
2023-05-14T08:51:08.250Z,20.8345
2023-05-14T08:52:09.640Z,20.6359
2023-05-14T08:53:11.109Z,20.3867
2023-05-14T08:54:12.481Z,20.4761
2023-05-14T08:55:14.051Z,20.5379
2023-05-14T08:56:15.336Z,20.6486
2023-05-14T08:57:16.799Z,20.7644
2023-05-14T08:58:18.136Z,20.8760
2023-05-14T08:59:19.713Z,20.5903
2023-05-14T09:00:21.164Z,20.4296
2023-05-14T09:01:22.582Z,20.5118
2023-05-14T09:02:23.937Z,20.5777
2023-05-14T09:03:25.432Z,20.6753
2023-05-14T09:04:26.818Z,20.7938
2023-05-14T09:05:28.253Z,20.9425
2023-05-14T09:06:29.688Z,20.7316
2023-05-14T09:07:31.024Z,20.4598
2023-05-14T09:08:32.397Z,20.4810
2023-05-14T09:09:33.922Z,20.5445
2023-05-14T09:10:35.344Z,20.6391
2023-05-14T09:11:36.692Z,20.6784
2023-05-14T09:12:38.176Z,20.8236
2023-05-14T09:13:39.574Z,20.8943
2023-05-14T09:14:41.004Z,20.5535
2023-05-14T09:15:42.360Z,20.3666
2023-05-14T09:16:43.886Z,20.4489
2023-05-14T09:17:45.320Z,20.5319
2023-05-14T09:18:46.810Z,20.5901
2023-05-14T09:19:48.205Z,20.7114
2023-05-14T09:20:49.497Z,20.8532
2023-05-14T09:21:50.932Z,20.8269
2023-05-14T09:22:52.364Z,20.4422
2023-05-14T09:23:53.796Z,20.2840
2023-05-14T09:24:55.256Z,20.4214
2023-05-14T09:25:56.748Z,20.5097
2023-05-14T09:26:58.042Z,20.5816
2023-05-14T09:27:59.482Z,20.6950
2023-05-14T09:29:00.764Z,20.7901
2023-05-14T09:30:02.413Z,20.8154
2023-05-14T09:31:03.869Z,20.4783
2023-05-14T09:32:05.353Z,20.3247
2023-05-14T09:33:06.591Z,20.3501
2023-05-14T09:34:08.038Z,20.3705
2023-05-14T09:35:09.520Z,20.4409
2023-05-14T09:36:11.038Z,20.4993
2023-05-14T09:37:12.401Z,20.5810
2023-05-14T09:38:13.869Z,20.7051
2023-05-14T09:39:15.272Z,20.4033
2023-05-14T09:40:16.832Z,20.0817
2023-05-14T09:41:18.108Z,20.0776
2023-05-14T09:42:19.530Z,20.1655
2023-05-14T09:43:20.978Z,20.2643
2023-05-14T09:44:22.374Z,20.3534
2023-05-14T09:45:23.813Z,20.4621
2023-05-14T09:46:25.294Z,20.5219
2023-05-14T09:47:26.706Z,20.6326
2023-05-14T09:48:28.143Z,20.3551
2023-05-14T09:49:29.492Z,20.1548
2023-05-14T09:50:30.976Z,20.2255
2023-05-14T09:51:32.399Z,20.3399
2023-05-14T09:52:33.832Z,20.4389
2023-05-14T09:53:35.287Z,20.5056
2023-05-14T09:54:36.613Z,20.6011
2023-05-14T09:55:38.106Z,20.6691
2023-05-14T09:56:39.627Z,20.3181
2023-05-14T09:57:40.987Z,20.1628
2023-05-14T09:58:42.265Z,20.2764
2023-05-14T09:59:43.837Z,20.4465
2023-05-14T10:00:45.239Z,20.5864
2023-05-14T10:01:46.707Z,20.6952
2023-05-14T10:02:48.144Z,20.8113
2023-05-14T10:03:49.644Z,20.8078
2023-05-14T10:04:50.963Z,20.3982
2023-05-14T10:05:52.462Z,20.2491
2023-05-14T10:06:53.837Z,20.4391
2023-05-14T10:07:55.333Z,20.5342
2023-05-14T10:08:56.613Z,20.7203
2023-05-14T10:09:59.590Z,20.8485
2023-05-14T10:10:59.529Z,20.9532
2023-05-14T10:12:00.965Z,20.6780
2023-05-14T10:13:02.479Z,20.4516
2023-05-14T10:14:03.780Z,20.5362
2023-05-14T10:15:05.158Z,20.6385
2023-05-14T10:16:06.661Z,20.8193
2023-05-14T10:17:08.436Z,20.9563
2023-05-14T10:18:09.710Z,21.0576
2023-05-14T10:19:10.931Z,20.9105
2023-05-14T10:20:12.426Z,20.6389
2023-05-14T10:21:13.767Z,20.7127
2023-05-14T10:22:15.197Z,20.8653
2023-05-14T10:23:16.626Z,20.9674
2023-05-14T10:24:18.116Z,21.0218
2023-05-14T10:25:19.447Z,21.1486
2023-05-14T10:26:23.087Z,21.0621
2023-05-14T10:27:22.380Z,20.7168
2023-05-14T10:28:23.784Z,20.7513
2023-05-14T10:29:25.246Z,20.9602
2023-05-14T10:30:26.889Z,21.0378
2023-05-14T10:31:28.107Z,21.1847
2023-05-14T10:32:29.622Z,21.1882
2023-05-14T10:33:30.921Z,20.8489
2023-05-14T10:34:32.382Z,20.8012
2023-05-14T10:35:33.603Z,20.9475
2023-05-14T10:36:35.190Z,21.0814
2023-05-14T10:37:36.630Z,21.2544
2023-05-14T10:38:38.067Z,21.4144
2023-05-14T10:39:39.505Z,21.2276
2023-05-14T10:40:40.864Z,20.9033
2023-05-14T10:41:42.288Z,20.8696
2023-05-14T10:42:43.734Z,21.0393
2023-05-14T10:43:45.167Z,21.1936
2023-05-14T10:44:46.611Z,21.4049
2023-05-14T10:45:47.949Z,21.3645
2023-05-14T10:46:49.467Z,20.9877
2023-05-14T10:47:51.045Z,20.8051
2023-05-14T10:48:52.337Z,20.9464
2023-05-14T10:49:53.700Z,21.0654
2023-05-14T10:50:55.209Z,21.1874
2023-05-14T10:51:56.527Z,21.3667
2023-05-14T10:52:57.941Z,21.1716
2023-05-14T10:53:59.371Z,20.8435
2023-05-14T10:55:03.189Z,20.8573
2023-05-14T10:56:02.250Z,21.0216
2023-05-14T10:57:03.531Z,21.1346
2023-05-14T10:58:05.211Z,21.2661
2023-05-14T10:59:06.663Z,21.3930
2023-05-14T11:00:08.664Z,21.1083
2023-05-14T11:01:09.343Z,20.8741
2023-05-14T11:02:10.868Z,20.9988
2023-05-14T11:03:12.417Z,21.1091
2023-05-14T11:04:13.795Z,21.2281
2023-05-14T11:05:15.069Z,21.3949
2023-05-14T11:06:16.541Z,21.2285
2023-05-14T11:07:17.934Z,20.8871
2023-05-14T11:08:19.358Z,20.9080
2023-05-14T11:09:20.812Z,21.0056
2023-05-14T11:10:22.510Z,21.1229
2023-05-14T11:11:23.615Z,21.2568
2023-05-14T11:12:25.010Z,21.1977
2023-05-14T11:13:26.291Z,20.9222
2023-05-14T11:14:27.887Z,20.8976
2023-05-14T11:15:29.342Z,20.9590
2023-05-14T11:16:30.691Z,21.0025
2023-05-14T11:17:32.202Z,21.0964
2023-05-14T11:18:33.643Z,21.2363
2023-05-14T11:19:35.015Z,21.0943
2023-05-14T11:20:36.362Z,20.7655
2023-05-14T11:21:37.879Z,20.7412
2023-05-14T11:22:39.186Z,20.8448
2023-05-14T11:23:40.723Z,20.9526
2023-05-14T11:24:42.286Z,21.0019
2023-05-14T11:25:43.602Z,21.1017
2023-05-14T11:26:44.930Z,21.0200
2023-05-14T11:27:46.354Z,20.7026
2023-05-14T11:28:47.776Z,20.6515
2023-05-14T11:29:49.210Z,20.7944
2023-05-14T11:30:50.676Z,20.9358
2023-05-14T11:31:52.164Z,21.0142
2023-05-14T11:32:53.399Z,21.0604
2023-05-14T11:33:54.927Z,20.8869
2023-05-14T11:34:56.343Z,20.7299
2023-05-14T11:35:57.798Z,20.8220
2023-05-14T11:36:59.297Z,20.9302
2023-05-14T11:38:00.654Z,21.0452
2023-05-14T11:39:01.992Z,21.1944
2023-05-14T11:40:03.503Z,21.0457
2023-05-14T11:41:04.831Z,20.8331
2023-05-14T11:42:06.290Z,20.9035
2023-05-14T11:43:07.677Z,21.0641
2023-05-14T11:44:09.269Z,21.1699
2023-05-14T11:45:10.636Z,21.1814
2023-05-14T11:46:12.036Z,20.7969
2023-05-14T11:47:13.357Z,20.6174
2023-05-14T11:48:14.852Z,20.7747
2023-05-14T11:49:16.184Z,20.9179
2023-05-14T11:50:17.652Z,21.0670
2023-05-14T11:51:19.183Z,21.1966
2023-05-14T11:52:20.542Z,21.2708
2023-05-14T11:53:22.093Z,20.9937
2023-05-14T11:54:23.308Z,20.9027
2023-05-14T11:55:24.771Z,21.0311
2023-05-14T11:56:26.301Z,21.1562
2023-05-14T11:57:27.664Z,21.2757
2023-05-14T11:58:29.068Z,21.3704
2023-05-14T11:59:30.434Z,21.2073
2023-05-14T12:00:31.882Z,21.1219
2023-05-14T12:01:33.338Z,21.0175
2023-05-14T12:02:34.863Z,21.0208
2023-05-14T12:03:36.103Z,21.1104
2023-05-14T12:04:37.613Z,21.2157
2023-05-14T12:05:39.004Z,21.3322
2023-05-14T12:06:40.374Z,21.1539
2023-05-14T12:07:42.027Z,20.9549
2023-05-14T12:08:43.149Z,20.9861
2023-05-14T12:09:45.464Z,21.0019
2023-05-14T12:10:46.103Z,21.0843
2023-05-14T12:11:47.547Z,21.2268
2023-05-14T12:12:48.999Z,21.1167
2023-05-14T12:13:50.231Z,20.8735
2023-05-14T12:14:51.735Z,20.8538
2023-05-14T12:15:53.224Z,20.9473
2023-05-14T12:16:54.791Z,21.0013
2023-05-14T12:17:56.072Z,21.1138
2023-05-14T12:18:57.478Z,21.0652
2023-05-14T12:19:58.885Z,20.7829
2023-05-14T12:21:00.341Z,20.7330
2023-05-14T12:22:01.803Z,20.8698
2023-05-14T12:23:03.156Z,20.9612